Portada
METAR-TAF:

METAR-TAF

Aeroports :

Mountain Empire Airport

Marion-Wytheville, Virgínia, Estats Units d'Amèrica

latitud: 36-54N, longitud: 081-21W, altitud: 780 m

Observació

L'informe es va fer fa 10 minuts, a les 06:55 UTC
Vent 16 kt del Oest/Sud-Oest amb ràfegues de 23 kt
Temperatura 17°C
Humitat 88%
Pressió 1010 hPa
Visibilitat: 16.1 km
Cel cobert a una alçada de 1900 ft

METAR: KMKJ 080655Z AUTO 25016G23KT 10SM OVC019 17/15 A2983 RMK AO2 T01710145

Hora: 03:05 (07:05 UTC)


TAF: manca

Observacions i pronòstics meteorològics de més de 4000 aeroports (METAR i TAF).

Les estacions disponibles són els punts grocs i vermells al mapa.

Posi el ratolí al punt desitjat per veure el nom de l'estació.

Feu clic per veure les observacions i els pronòstics meteorològics.

Per canviar el mapa: feu clic els botons verds amb una creu de color negre per apropar; al botó verd amb un guió per allunyar la imatge; o en les fletxes verdes per a mapes adjacents.


METAR-TAF: